createdAt,value
2019-05-01T00:00:29.313Z,9.00
2019-05-01T00:01:08.316Z,9.01
2019-05-01T00:02:12.317Z,9.06
2019-05-01T00:03:08.816Z,8.97
2019-05-01T00:04:08.815Z,8.94
2019-05-01T00:05:08.816Z,9.00
2019-05-01T00:06:08.816Z,8.94
2019-05-01T00:07:09.320Z,8.91
2019-05-01T00:08:13.320Z,8.98
2019-05-01T00:09:09.313Z,9.00
2019-05-01T00:10:09.319Z,9.00
2019-05-01T00:11:09.822Z,8.96
2019-05-01T00:12:09.815Z,8.91
2019-05-01T00:13:09.815Z,8.97
2019-05-01T00:14:13.323Z,8.93
2019-05-01T00:15:11.785Z,8.89
2019-05-01T00:16:11.286Z,8.97
2019-05-01T00:17:10.312Z,8.91
2019-05-01T00:18:31.320Z,8.86
2019-05-01T00:19:14.323Z,8.71
2019-05-01T00:20:10.814Z,8.73
2019-05-01T00:21:10.820Z,8.67
2019-05-01T00:22:10.856Z,8.58
2019-05-01T00:24:46.055Z,8.64
2019-05-01T00:25:42.562Z,8.70
2019-05-01T00:26:42.562Z,8.80
2019-05-01T00:27:43.062Z,8.64
2019-05-01T00:28:43.062Z,8.60
2019-05-01T00:30:08.062Z,8.65
2019-05-01T00:30:43.065Z,8.63
2019-05-01T00:32:05.509Z,8.61
2019-05-01T00:34:14.884Z,8.63
2019-05-01T00:35:18.393Z,8.65
2019-05-01T00:36:14.886Z,8.68
2019-05-01T00:37:15.387Z,8.67
2019-05-01T00:38:15.389Z,8.65
2019-05-01T00:39:15.384Z,8.67
2019-05-01T00:40:18.892Z,8.58
2019-05-01T00:41:36.886Z,8.64
2019-05-01T00:42:15.886Z,8.64
2019-05-01T00:43:15.888Z,8.63
2019-05-01T00:44:15.893Z,8.63
2019-05-01T00:45:19.894Z,8.75
2019-05-01T00:46:16.385Z,8.65
2019-05-01T00:47:16.386Z,8.58
2019-05-01T00:48:16.389Z,8.58
2019-05-01T00:49:16.908Z,8.63
2019-05-01T00:50:16.917Z,8.61
2019-05-01T00:52:52.385Z,8.64
2019-05-01T00:53:52.393Z,8.67
2019-05-01T00:54:52.392Z,8.61
2019-05-01T00:55:52.885Z,8.73
2019-05-01T00:56:56.390Z,8.63
2019-05-01T00:57:52.889Z,8.54
2019-05-01T00:58:53.864Z,8.52
2019-05-01T01:00:14.390Z,8.47
2019-05-01T01:00:53.390Z,8.61
2019-05-01T01:01:56.891Z,8.63
2019-05-01T01:02:53.398Z,8.55
2019-05-01T01:03:53.890Z,8.54
2019-05-01T01:04:53.894Z,8.52
2019-05-01T01:06:14.890Z,8.49
2019-05-01T01:07:18.890Z,8.54
2019-05-01T01:08:15.390Z,8.55
2019-05-01T01:09:15.395Z,8.50
2019-05-01T01:10:15.395Z,8.42
2019-05-01T01:10:56.824Z,8.34
2019-05-01T01:12:26.345Z,8.28
2019-05-01T01:13:20.323Z,8.29
2019-05-01T01:13:54.889Z,8.25
2019-05-01T01:15:15.889Z,8.25
2019-05-01T01:15:54.891Z,8.25
2019-05-01T01:17:16.389Z,8.27
2019-05-01T01:17:58.891Z,8.25
2019-05-01T01:18:55.397Z,8.20
2019-05-01T01:19:55.389Z,8.21
2019-05-01T01:20:55.889Z,8.14
2019-05-01T01:21:55.891Z,8.25
2019-05-01T01:22:55.896Z,8.14
2019-05-01T01:23:59.898Z,8.14
2019-05-01T01:24:56.389Z,8.17
2019-05-01T01:25:56.391Z,8.31
2019-05-01T01:26:56.391Z,8.25
2019-05-01T01:27:56.389Z,8.27
2019-05-01T01:28:58.363Z,8.28
2019-05-01T01:29:59.889Z,8.24
2019-05-01T01:30:56.982Z,8.25
2019-05-01T01:31:56.888Z,8.22
2019-05-01T01:32:57.388Z,8.27
2019-05-01T01:35:32.749Z,8.27
2019-05-01T01:36:28.760Z,8.21
2019-05-01T01:37:28.763Z,8.07
2019-05-01T01:38:51.695Z,8.12
2019-05-01T01:39:50.259Z,8.02
2019-05-01T01:40:55.726Z,8.00
2019-05-01T01:41:50.256Z,8.02
2019-05-01T01:42:29.256Z,8.02
2019-05-01T01:45:00.991Z,8.02
2019-05-01T01:46:25.498Z,8.00
2019-05-01T01:47:00.997Z,7.95
2019-05-01T01:48:22.498Z,7.96
2019-05-01T01:49:22.506Z,7.99
2019-05-01T01:50:01.497Z,7.96
2019-05-01T01:51:05.499Z,8.02
2019-05-01T01:52:22.996Z,8.04
2019-05-01T01:53:01.997Z,8.02
2019-05-01T01:54:02.002Z,8.03
2019-05-01T01:55:02.003Z,7.94
2019-05-01T01:56:07.472Z,7.92
2019-05-01T01:57:03.432Z,7.89
2019-05-01T01:58:23.497Z,7.86
2019-05-01T01:59:02.504Z,7.76
2019-05-01T02:00:23.996Z,7.74
2019-05-01T02:01:27.996Z,7.82
2019-05-01T02:02:02.994Z,7.74
2019-05-01T02:03:02.996Z,7.71
2019-05-01T02:04:03.500Z,7.70
2019-05-01T02:05:03.502Z,7.69
2019-05-01T02:06:03.494Z,7.73
2019-05-01T02:07:27.996Z,7.62
2019-05-01T02:08:04.009Z,7.76
2019-05-01T02:09:03.998Z,7.62
2019-05-01T02:10:06.444Z,7.73
2019-05-01T02:11:03.996Z,7.74
2019-05-01T02:12:07.996Z,7.77
2019-05-01T02:13:04.495Z,7.76
2019-05-01T02:14:04.499Z,7.82
2019-05-01T02:15:04.501Z,7.79
2019-05-01T02:16:25.996Z,7.73
2019-05-01T02:17:04.996Z,7.73
2019-05-01T02:18:08.996Z,7.71
2019-05-01T02:19:05.041Z,7.55
2019-05-01T02:20:05.501Z,7.57
2019-05-01T02:21:26.498Z,7.55
2019-05-01T02:22:26.497Z,7.58
2019-05-01T02:23:05.495Z,7.54
2019-05-01T02:24:09.050Z,7.60
2019-05-01T02:25:05.993Z,7.62
2019-05-01T02:27:37.354Z,7.55
2019-05-01T02:30:11.835Z,7.67
2019-05-01T02:31:08.836Z,7.57
2019-05-01T02:32:29.837Z,7.69
2019-05-01T02:33:09.338Z,7.70
2019-05-01T02:34:09.340Z,7.70
2019-05-01T02:35:13.344Z,7.67
2019-05-01T02:36:09.336Z,7.63
2019-05-01T02:37:09.843Z,7.73
2019-05-01T02:38:09.841Z,7.77
2019-05-01T02:39:09.836Z,7.81
2019-05-01T02:40:09.838Z,7.73
2019-05-01T02:41:35.350Z,7.69
2019-05-01T02:42:11.790Z,7.79
2019-05-01T02:43:10.339Z,7.73
2019-05-01T02:44:10.341Z,7.73
2019-05-01T02:45:10.338Z,7.76
2019-05-01T02:47:45.074Z,7.79
2019-05-01T02:48:45.083Z,7.74
2019-05-01T02:49:45.092Z,7.82
2019-05-01T02:51:06.584Z,7.84
2019-05-01T02:52:10.088Z,7.73
2019-05-01T02:52:45.591Z,7.82
2019-05-01T02:53:45.592Z,7.85
2019-05-01T02:54:46.085Z,7.89
2019-05-01T02:55:46.081Z,7.86
2019-05-01T02:56:50.081Z,7.88
2019-05-01T02:57:46.081Z,7.82
2019-05-01T03:00:38.823Z,7.77
2019-05-01T03:02:53.300Z,7.95
2019-05-01T03:03:49.307Z,7.99
2019-05-01T03:04:49.309Z,8.04
2019-05-01T03:07:21.040Z,8.04
2019-05-01T03:08:25.073Z,7.95
2019-05-01T03:09:21.047Z,8.02
2019-05-01T03:10:21.567Z,7.96
2019-05-01T03:11:21.556Z,8.00
2019-05-01T03:12:21.551Z,8.02
2019-05-01T03:13:22.499Z,8.04
2019-05-01T03:14:46.546Z,8.06
2019-05-01T03:15:22.045Z,8.03
2019-05-01T03:16:22.055Z,8.09
2019-05-01T03:17:22.045Z,8.12
2019-05-01T03:18:22.049Z,8.00
2019-05-01T03:19:23.480Z,8.04
2019-05-01T03:20:26.046Z,7.92
2019-05-01T03:21:22.545Z,7.94
2019-05-01T03:22:22.552Z,8.04
2019-05-01T03:23:23.050Z,7.92
2019-05-01T03:24:23.051Z,7.89
2019-05-01T03:25:28.479Z,7.88
2019-05-01T03:26:23.049Z,7.84
2019-05-01T03:27:45.500Z,7.92
2019-05-01T03:28:23.552Z,7.89
2019-05-01T03:29:44.547Z,7.89
2019-05-01T03:30:23.546Z,7.96
2019-05-01T03:31:28.488Z,7.92
2019-05-01T03:32:24.054Z,8.00
2019-05-01T03:33:24.045Z,7.95
2019-05-01T03:34:24.053Z,7.84
2019-05-01T03:35:24.045Z,7.84
2019-05-01T03:36:28.045Z,7.77
2019-05-01T03:37:24.544Z,7.77
2019-05-01T03:38:24.562Z,7.77
2019-05-01T03:39:24.545Z,7.77
2019-05-01T03:40:25.062Z,7.79
2019-05-01T03:41:25.979Z,7.70
2019-05-01T03:42:29.045Z,7.74
2019-05-01T03:43:25.049Z,7.71
2019-05-01T03:44:25.547Z,7.74
2019-05-01T03:45:25.546Z,7.67
2019-05-01T03:46:25.552Z,7.79
2019-05-01T03:47:25.541Z,7.74
2019-05-01T03:48:29.044Z,7.62
2019-05-01T03:49:26.042Z,7.69
2019-05-01T03:50:26.046Z,7.55
2019-05-01T03:51:26.043Z,7.50
2019-05-01T03:54:01.785Z,7.45
2019-05-01T03:54:57.796Z,7.36
2019-05-01T03:55:57.830Z,7.42
2019-05-01T03:56:58.284Z,7.36
2019-05-01T03:58:19.301Z,7.34
2019-05-01T03:59:00.252Z,7.33
2019-05-01T04:00:03.798Z,7.32
2019-05-01T04:00:58.285Z,7.24
2019-05-01T04:03:30.021Z,7.29
2019-05-01T04:04:30.028Z,7.29
2019-05-01T04:05:33.525Z,7.29
2019-05-01T04:06:32.530Z,7.29
2019-05-01T04:07:30.528Z,7.34
2019-05-01T04:08:51.525Z,7.34
2019-05-01T04:09:30.524Z,7.45
2019-05-01T04:10:55.524Z,7.36
2019-05-01T04:11:52.025Z,7.39
2019-05-01T04:12:31.024Z,7.34
2019-05-01T04:13:31.025Z,7.34
2019-05-01T04:14:31.529Z,7.30
2019-05-01T04:15:31.536Z,7.24
2019-05-01T04:16:35.524Z,7.34
2019-05-01T04:17:31.524Z,7.27
2019-05-01T04:18:32.024Z,7.24
2019-05-01T04:19:32.024Z,7.24
2019-05-01T04:20:32.021Z,7.24
2019-05-01T04:21:35.523Z,7.30
2019-05-01T04:22:32.527Z,7.23
2019-05-01T04:25:04.829Z,7.37
2019-05-01T04:26:03.888Z,7.29
2019-05-01T04:27:07.394Z,7.27
2019-05-01T04:28:06.822Z,7.29
2019-05-01T04:29:25.388Z,7.29
2019-05-01T04:30:04.394Z,7.30
2019-05-01T04:31:04.410Z,7.26
2019-05-01T04:32:09.373Z,7.24
2019-05-01T04:33:11.821Z,7.14
2019-05-01T04:34:04.887Z,7.16
2019-05-01T04:35:04.888Z,7.19
2019-05-01T04:36:05.391Z,7.26
2019-05-01T04:37:06.363Z,7.19
2019-05-01T04:38:09.391Z,7.19
2019-05-01T04:39:05.386Z,7.23
2019-05-01T04:40:05.887Z,7.16
2019-05-01T04:41:05.887Z,7.15
2019-05-01T04:42:05.887Z,7.14
2019-05-01T04:43:05.887Z,7.19
2019-05-01T04:46:01.874Z,7.36
2019-05-01T04:46:40.878Z,7.37
2019-05-01T04:47:40.880Z,7.39
2019-05-01T04:48:42.312Z,7.44
2019-05-01T04:49:44.883Z,7.41
2019-05-01T04:50:42.313Z,7.45
2019-05-01T04:51:41.378Z,7.55
2019-05-01T04:52:41.874Z,7.55
2019-05-01T04:54:02.877Z,7.55
2019-05-01T04:54:41.884Z,7.62
2019-05-01T04:55:45.877Z,7.57
2019-05-01T04:56:42.380Z,7.69
2019-05-01T04:57:42.380Z,7.70
2019-05-01T04:58:43.359Z,7.66
2019-05-01T04:59:42.378Z,7.58
2019-05-01T05:01:07.386Z,7.71
2019-05-01T05:02:03.877Z,7.76
2019-05-01T05:02:42.879Z,7.84
2019-05-01T05:03:44.816Z,7.91
2019-05-01T05:04:43.378Z,7.91
2019-05-01T05:05:43.377Z,8.02
2019-05-01T05:06:47.376Z,8.04
2019-05-01T05:07:43.384Z,8.02
2019-05-01T05:08:43.876Z,8.03
2019-05-01T05:09:43.881Z,8.13
2019-05-01T05:10:43.876Z,8.24
2019-05-01T05:11:43.876Z,8.25
2019-05-01T05:12:48.376Z,8.17
2019-05-01T05:13:46.873Z,8.25
2019-05-01T05:14:44.384Z,8.28
2019-05-01T05:15:44.375Z,8.27
2019-05-01T05:16:44.875Z,8.42
2019-05-01T05:17:44.879Z,8.37
2019-05-01T05:18:48.445Z,8.43
2019-05-01T05:19:44.876Z,8.39
2019-05-01T05:21:06.376Z,8.50
2019-05-01T05:21:45.375Z,8.55
2019-05-01T05:22:45.375Z,8.55
2019-05-01T05:23:49.375Z,8.46
2019-05-01T05:24:45.875Z,8.60
2019-05-01T05:25:45.875Z,8.47
2019-05-01T05:26:45.875Z,8.57
2019-05-01T05:27:45.874Z,8.64
2019-05-01T05:28:48.373Z,8.64
2019-05-01T05:29:51.833Z,8.73
2019-05-01T05:30:46.374Z,8.85
2019-05-01T05:31:46.375Z,8.79
2019-05-01T05:32:46.374Z,8.85
2019-05-01T05:35:22.113Z,8.85
2019-05-01T05:36:39.120Z,8.93
2019-05-01T05:37:18.118Z,8.96
2019-05-01T05:38:40.577Z,8.97
2019-05-01T05:40:53.439Z,8.91
2019-05-01T05:41:49.950Z,8.93
2019-05-01T05:42:49.948Z,9.01
2019-05-01T05:43:51.883Z,8.94
2019-05-01T05:44:50.448Z,8.96
2019-05-01T05:45:55.951Z,8.98
2019-05-01T05:46:50.449Z,8.98
2019-05-01T05:49:22.188Z,9.12
2019-05-01T05:50:22.190Z,9.10
2019-05-01T05:51:26.189Z,9.22
2019-05-01T05:52:22.689Z,9.20
2019-05-01T05:53:22.689Z,9.12
2019-05-01T05:54:22.689Z,9.30
2019-05-01T05:55:22.691Z,9.27
2019-05-01T05:56:23.186Z,9.30
2019-05-01T05:57:26.189Z,9.27
2019-05-01T05:58:23.202Z,9.23
2019-05-01T05:59:23.188Z,9.37
2019-05-01T06:00:23.689Z,9.41
2019-05-01T06:01:23.692Z,9.41
2019-05-01T06:02:27.688Z,9.48
2019-05-01T06:03:44.704Z,9.50
2019-05-01T06:04:24.189Z,9.56
2019-05-01T06:05:24.188Z,9.55
2019-05-01T06:06:24.187Z,9.63
2019-05-01T06:07:24.189Z,9.67
2019-05-01T06:08:28.693Z,9.65
2019-05-01T06:09:24.691Z,9.68
2019-05-01T06:10:24.688Z,9.77
2019-05-01T06:11:24.706Z,9.77
2019-05-01T06:12:25.188Z,9.74
2019-05-01T06:13:57.147Z,9.75
2019-05-01T06:14:26.984Z,9.77
2019-05-01T06:15:25.189Z,9.78
2019-05-01T06:16:51.496Z,9.71
2019-05-01T06:17:28.565Z,9.70
2019-05-01T06:18:25.692Z,9.65
2019-05-01T06:19:28.687Z,9.60
2019-05-01T06:20:27.638Z,9.63
2019-05-01T06:21:26.187Z,9.73
2019-05-01T06:22:26.194Z,9.75
2019-05-01T06:23:26.187Z,9.83
2019-05-01T06:24:29.692Z,9.78
2019-05-01T06:25:26.695Z,9.77
2019-05-01T06:26:26.687Z,9.78
2019-05-01T06:27:28.156Z,9.73
2019-05-01T06:28:29.585Z,9.74
2019-05-01T06:31:02.364Z,9.89
2019-05-01T06:33:43.840Z,9.93
2019-05-01T06:34:37.357Z,10.01
2019-05-01T06:35:37.669Z,9.99
2019-05-01T06:36:34.356Z,10.09
2019-05-01T06:37:34.356Z,10.17
2019-05-01T06:38:36.178Z,10.02
2019-05-01T06:39:38.356Z,10.04
2019-05-01T06:40:58.167Z,10.06
2019-05-01T06:41:42.153Z,10.11
2019-05-01T06:44:27.338Z,10.17
2019-05-01T06:45:13.128Z,10.20
2019-05-01T06:46:29.093Z,10.13
2019-05-01T06:47:06.849Z,10.20
2019-05-01T06:48:06.845Z,10.17
2019-05-01T06:49:07.160Z,10.24
2019-05-01T06:50:07.540Z,10.25
2019-05-01T06:51:12.911Z,10.29
2019-05-01T06:52:07.344Z,10.31
2019-05-01T06:54:38.828Z,10.44
2019-05-01T06:55:38.836Z,10.49
2019-05-01T06:56:42.845Z,10.44
2019-05-01T06:57:43.866Z,10.43
2019-05-01T06:58:39.337Z,10.42
2019-05-01T06:59:39.336Z,10.51
2019-05-01T07:00:43.090Z,10.51
2019-05-01T07:01:42.835Z,10.44
2019-05-01T07:03:00.839Z,10.42
2019-05-01T07:03:40.817Z,10.55
2019-05-01T07:04:39.844Z,10.58
2019-05-01T07:05:40.337Z,10.73
2019-05-01T07:06:43.835Z,10.80
2019-05-01T07:07:43.106Z,10.63
2019-05-01T07:08:40.352Z,10.73
2019-05-01T07:09:44.099Z,10.75
2019-05-01T07:10:43.923Z,10.75
2019-05-01T07:12:05.335Z,10.91
2019-05-01T07:12:43.269Z,10.98
2019-05-01T07:15:12.571Z,10.95
2019-05-01T07:16:12.572Z,10.94
2019-05-01T07:17:16.578Z,11.19
2019-05-01T07:18:34.074Z,11.16
2019-05-01T07:19:13.080Z,11.21
2019-05-01T07:20:16.702Z,11.28
2019-05-01T07:21:13.085Z,11.36
2019-05-01T07:22:42.360Z,11.38
2019-05-01T07:23:17.381Z,11.49
2019-05-01T07:24:13.574Z,11.53
2019-05-01T07:25:13.576Z,11.57
2019-05-01T07:26:35.091Z,11.60
2019-05-01T07:27:35.078Z,11.69
2019-05-01T07:28:39.073Z,11.81
2019-05-01T07:29:14.079Z,11.84
2019-05-01T07:30:35.576Z,11.85
2019-05-01T07:31:14.574Z,11.82
2019-05-01T07:32:15.136Z,11.79
2019-05-01T07:33:16.746Z,11.96
2019-05-01T07:35:50.309Z,11.93
2019-05-01T07:36:51.717Z,12.08
2019-05-01T07:37:50.312Z,12.00
2019-05-01T07:38:50.806Z,12.13
2019-05-01T07:39:54.306Z,12.22
2019-05-01T07:40:50.813Z,12.26
2019-05-01T07:41:50.806Z,12.22
2019-05-01T07:42:51.309Z,12.22
2019-05-01T07:45:26.624Z,12.22
2019-05-01T07:46:22.678Z,12.22
2019-05-01T07:47:25.932Z,12.19
2019-05-01T07:48:23.178Z,12.23
2019-05-01T07:49:23.178Z,12.40
2019-05-01T07:50:31.832Z,12.41
2019-05-01T07:51:23.182Z,12.49
2019-05-01T07:52:23.678Z,12.55
2019-05-01T07:53:28.008Z,12.67
2019-05-01T07:54:23.678Z,12.79
2019-05-01T07:55:23.683Z,12.69
2019-05-01T07:56:28.084Z,12.81
2019-05-01T07:57:24.178Z,12.85
2019-05-01T07:58:24.180Z,13.01
2019-05-01T07:59:27.503Z,13.16
2019-05-01T08:00:24.685Z,13.22
2019-05-01T08:03:24.803Z,13.61
2019-05-01T08:04:00.362Z,13.68
2019-05-01T08:05:00.362Z,13.76
2019-05-01T08:06:00.367Z,13.65
2019-05-01T08:07:05.335Z,13.76
2019-05-01T08:08:02.877Z,13.79
2019-05-01T08:09:00.861Z,13.79
2019-05-01T08:10:00.864Z,13.94
2019-05-01T08:11:05.301Z,14.05
2019-05-01T08:12:26.369Z,14.17
2019-05-01T08:13:22.360Z,14.26
2019-05-01T08:14:07.369Z,14.30
2019-05-01T08:15:27.614Z,14.31
2019-05-01T08:16:07.120Z,14.41
2019-05-01T08:17:26.889Z,14.42
2019-05-01T08:18:01.868Z,14.53
2019-05-01T08:19:05.819Z,14.71
2019-05-01T08:21:35.727Z,14.90
2019-05-01T08:24:29.449Z,15.01
2019-05-01T08:25:08.456Z,15.18
2019-05-01T08:26:08.941Z,15.25
2019-05-01T08:27:08.981Z,15.28
2019-05-01T08:28:11.467Z,15.31
2019-05-01T08:29:29.954Z,15.40
2019-05-01T08:30:12.697Z,15.53
2019-05-01T08:31:10.910Z,15.59
2019-05-01T08:32:09.452Z,15.58
2019-05-01T08:33:14.681Z,15.66
2019-05-01T08:34:09.458Z,15.73
2019-05-01T08:35:09.456Z,15.74
2019-05-01T08:36:11.588Z,15.88
2019-05-01T08:37:30.960Z,15.88
2019-05-01T08:38:13.956Z,16.03
2019-05-01T08:39:11.425Z,16.07
2019-05-01T08:43:18.146Z,16.14
2019-05-01T08:44:13.129Z,16.26
2019-05-01T08:45:14.562Z,16.30
2019-05-01T08:46:34.633Z,16.41
2019-05-01T08:47:34.627Z,16.45
2019-05-01T08:48:17.626Z,16.42
2019-05-01T08:49:13.653Z,16.50
2019-05-01T08:51:46.323Z,16.55
2019-05-01T08:52:47.414Z,16.70
2019-05-01T08:53:52.746Z,16.80
2019-05-01T08:54:45.889Z,16.81
2019-05-01T08:55:47.102Z,16.95
2019-05-01T08:56:45.889Z,16.92
2019-05-01T08:57:45.890Z,16.77
2019-05-01T08:58:53.824Z,16.84
2019-05-01T08:59:46.390Z,16.80
2019-05-01T09:00:46.389Z,16.81
2019-05-01T09:01:50.540Z,16.77
2019-05-01T09:02:46.897Z,16.82
2019-05-01T09:03:49.759Z,16.81
2019-05-01T09:05:01.678Z,16.85
2019-05-01T09:05:46.889Z,16.80
2019-05-01T09:06:47.390Z,16.91
2019-05-01T09:07:51.292Z,17.05
2019-05-01T09:08:47.388Z,17.12
2019-05-01T09:09:51.389Z,17.25
2019-05-01T09:12:19.133Z,17.20
2019-05-01T09:13:23.825Z,17.36
2019-05-01T09:14:19.142Z,17.28
2019-05-01T09:15:23.140Z,17.25
2019-05-01T09:16:23.481Z,17.49
2019-05-01T09:17:19.641Z,17.51
2019-05-01T09:18:19.640Z,17.63
2019-05-01T09:19:20.151Z,17.77
2019-05-01T09:20:24.141Z,17.76
2019-05-01T09:21:20.141Z,17.71
2019-05-01T09:22:20.153Z,17.57
2019-05-01T09:23:20.645Z,17.46
2019-05-01T09:24:23.233Z,17.42
2019-05-01T09:25:20.641Z,17.49
2019-05-01T09:26:24.146Z,17.65
2019-05-01T09:27:23.739Z,17.77
2019-05-01T09:28:21.150Z,17.87
2019-05-01T09:29:21.141Z,17.95
2019-05-01T09:30:21.815Z,17.98
2019-05-01T09:31:25.141Z,18.09
2019-05-01T09:32:23.642Z,18.21
2019-05-01T09:33:42.647Z,18.28
2019-05-01T09:34:21.641Z,18.49
2019-05-01T09:35:45.429Z,18.65
2019-05-01T09:36:22.110Z,18.78
2019-05-01T09:37:26.157Z,18.86
2019-05-01T09:38:22.141Z,18.86
2019-05-01T09:39:22.142Z,18.93
2019-05-01T09:40:22.642Z,19.02
2019-05-01T09:41:22.638Z,19.10
2019-05-01T09:42:23.817Z,19.17
2019-05-01T09:43:26.143Z,19.23
2019-05-01T09:44:23.141Z,19.30
2019-05-01T09:45:23.144Z,19.38
2019-05-01T09:46:23.148Z,19.35
2019-05-01T09:47:23.151Z,19.46
2019-05-01T09:48:27.642Z,19.47
2019-05-01T09:49:23.646Z,19.52
2019-05-01T09:50:25.830Z,19.52
2019-05-01T09:51:23.636Z,19.68
2019-05-01T09:52:25.098Z,19.50
2019-05-01T09:53:48.642Z,19.70
2019-05-01T09:54:24.148Z,19.82
2019-05-01T09:55:24.948Z,20.00
2019-05-01T09:56:24.142Z,19.90
2019-05-01T09:57:45.650Z,19.92
2019-05-01T09:58:24.643Z,20.01
2019-05-01T09:59:28.643Z,19.89
2019-05-01T10:00:24.643Z,19.89
2019-05-01T10:01:31.652Z,20.00
2019-05-01T10:02:25.140Z,19.98
2019-05-01T10:03:25.147Z,19.83
2019-05-01T10:04:30.301Z,19.80
2019-05-01T10:05:28.910Z,19.90
2019-05-01T10:06:25.709Z,19.89
2019-05-01T10:07:46.642Z,19.90
2019-05-01T10:08:25.649Z,19.80
2019-05-01T10:09:30.153Z,19.85
2019-05-01T10:10:29.290Z,19.87
2019-05-01T10:11:26.143Z,19.90
2019-05-01T10:12:26.141Z,20.00
2019-05-01T10:13:26.141Z,19.98
2019-05-01T10:14:26.643Z,20.12
2019-05-01T10:15:53.153Z,20.27
2019-05-01T10:16:26.643Z,20.40
2019-05-01T10:17:26.644Z,20.23
2019-05-01T10:18:27.143Z,20.20
2019-05-01T10:19:50.169Z,20.38
2019-05-01T10:20:31.152Z,20.40
2019-05-01T10:21:28.852Z,20.60
2019-05-01T10:24:19.893Z,20.64
2019-05-01T10:24:58.920Z,20.75
2019-05-01T10:27:35.772Z,20.63
2019-05-01T10:28:33.111Z,20.58
2019-05-01T10:29:33.104Z,20.61
2019-05-01T10:30:36.341Z,20.58
2019-05-01T10:31:37.104Z,20.64
2019-05-01T10:32:33.616Z,20.73
2019-05-01T10:33:33.858Z,20.78
2019-05-01T10:34:56.661Z,20.96
2019-05-01T10:35:42.346Z,20.98
2019-05-01T10:36:34.107Z,21.06
2019-05-01T10:37:38.039Z,20.85
2019-05-01T10:38:34.106Z,20.78
2019-05-01T10:39:34.606Z,20.91
2019-05-01T10:40:34.605Z,21.00
2019-05-01T10:41:34.605Z,21.09
2019-05-01T10:42:41.003Z,21.28
2019-05-01T10:43:35.109Z,21.34
2019-05-01T10:44:35.106Z,21.42
2019-05-01T10:45:35.106Z,21.53
2019-05-01T10:46:35.105Z,21.66
2019-05-01T10:47:35.604Z,21.66
2019-05-01T10:50:31.890Z,21.86
2019-05-01T10:51:10.897Z,22.01
2019-05-01T10:52:14.357Z,22.06
2019-05-01T10:53:11.396Z,22.15
2019-05-01T10:54:14.897Z,22.09
2019-05-01T10:55:11.396Z,22.11
2019-05-01T10:56:11.396Z,22.14
2019-05-01T10:58:43.156Z,21.94
2019-05-01T11:01:17.612Z,21.79
2019-05-01T11:02:17.617Z,21.82
2019-05-01T11:03:17.617Z,22.01
2019-05-01T11:04:17.617Z,22.08
2019-05-01T11:05:21.117Z,21.99
2019-05-01T11:06:39.125Z,22.12
2019-05-01T11:07:39.120Z,21.79
2019-05-01T11:08:18.117Z,21.73
2019-05-01T11:11:14.869Z,21.49
2019-05-01T11:11:49.877Z,21.53
2019-05-01T11:12:49.876Z,21.52
2019-05-01T11:15:21.632Z,21.30
2019-05-01T11:16:27.080Z,21.56
2019-05-01T11:17:21.644Z,21.63
2019-05-01T11:18:21.641Z,21.82
2019-05-01T11:19:22.137Z,21.98
2019-05-01T11:20:43.139Z,21.77
2019-05-01T11:21:22.142Z,21.98
2019-05-01T11:22:46.637Z,21.96
2019-05-01T11:23:22.637Z,21.85
2019-05-01T11:24:22.639Z,21.96
2019-05-01T11:25:22.638Z,22.15
2019-05-01T11:26:22.641Z,22.21
2019-05-01T11:27:25.646Z,22.04
2019-05-01T11:28:23.138Z,21.98
2019-05-01T11:29:23.139Z,22.33
2019-05-01T11:30:23.141Z,22.48
2019-05-01T11:31:23.639Z,22.76
2019-05-01T11:32:26.638Z,22.79
2019-05-01T11:33:24.043Z,22.49
2019-05-01T11:34:23.639Z,22.49
2019-05-01T11:35:47.140Z,23.04
2019-05-01T11:36:24.145Z,23.39
2019-05-01T11:37:28.139Z,23.69
2019-05-01T11:38:24.139Z,23.97
2019-05-01T11:39:27.073Z,24.44
2019-05-01T11:40:24.640Z,24.89
2019-05-01T11:41:24.639Z,25.16
2019-05-01T11:42:24.639Z,25.42
2019-05-01T11:43:31.147Z,25.74
2019-05-01T11:44:25.137Z,25.64
2019-05-01T11:45:25.140Z,25.81
2019-05-01T11:46:25.139Z,25.91
2019-05-01T11:47:25.647Z,26.13
2019-05-01T11:48:30.095Z,26.61
2019-05-01T11:49:50.165Z,26.69
2019-05-01T11:50:25.640Z,26.61
2019-05-01T11:51:26.142Z,26.61
2019-05-01T11:52:26.140Z,26.93
2019-05-01T11:53:26.142Z,27.13
2019-05-01T11:54:30.190Z,27.25
2019-05-01T11:55:26.641Z,27.39
2019-05-01T11:56:28.109Z,27.72
2019-05-01T11:57:26.650Z,27.90
2019-05-01T11:58:27.595Z,28.17
2019-05-01T11:59:28.075Z,28.08
2019-05-01T12:00:30.164Z,27.99
2019-05-01T12:01:48.141Z,28.08
2019-05-01T12:02:27.142Z,27.76
2019-05-01T12:03:27.138Z,28.08
2019-05-01T12:04:29.640Z,28.40
2019-05-01T12:05:31.641Z,28.79
2019-05-01T12:06:28.609Z,28.95
2019-05-01T12:07:28.598Z,28.65
2019-05-01T12:08:49.161Z,28.69
2019-05-01T12:09:28.141Z,28.87
2019-05-01T12:10:34.076Z,28.55
2019-05-01T12:11:32.145Z,28.91
2019-05-01T12:12:29.609Z,28.51
2019-05-01T12:13:42.752Z,28.27
2019-05-01T12:14:28.645Z,27.21
2019-05-01T12:15:28.642Z,26.53
2019-05-01T12:16:29.142Z,25.81
2019-05-01T12:17:32.150Z,25.49
2019-05-01T12:18:50.141Z,24.97
2019-05-01T12:19:29.141Z,24.53
2019-05-01T12:20:50.647Z,24.45
2019-05-01T12:21:50.642Z,24.29
2019-05-01T12:22:54.645Z,24.46
2019-05-01T12:23:29.642Z,24.44
2019-05-01T12:24:31.139Z,25.11
2019-05-01T12:25:30.143Z,25.82
2019-05-01T12:26:30.149Z,26.51
2019-05-01T12:27:30.191Z,26.93
2019-05-01T12:28:34.643Z,27.43
2019-05-01T12:29:30.643Z,27.95
2019-05-01T12:30:30.644Z,28.21
2019-05-01T12:31:31.580Z,28.51
2019-05-01T12:32:52.143Z,28.79
2019-05-01T12:33:31.151Z,28.97
2019-05-01T12:34:35.654Z,29.02
2019-05-01T12:35:31.155Z,28.30
2019-05-01T12:36:36.482Z,27.71
2019-05-01T12:37:31.650Z,27.76
2019-05-01T12:38:31.647Z,27.42
2019-05-01T12:39:31.651Z,28.08
2019-05-01T12:40:35.651Z,28.46
2019-05-01T12:41:53.144Z,28.94
2019-05-01T12:42:32.143Z,29.00
2019-05-01T12:43:53.150Z,27.95
2019-05-01T12:44:56.078Z,27.30
2019-05-01T12:45:35.644Z,26.71
2019-05-01T12:46:53.644Z,26.23
2019-05-01T12:47:32.648Z,25.60
2019-05-01T12:48:33.151Z,25.29
2019-05-01T12:49:33.186Z,25.22
2019-05-01T12:50:36.648Z,25.05
2019-05-01T12:51:33.144Z,25.14
2019-05-01T12:52:54.644Z,24.84
2019-05-01T12:53:54.646Z,24.87
2019-05-01T12:54:54.645Z,24.68
2019-05-01T12:55:35.101Z,24.48
2019-05-01T12:56:37.649Z,24.24
2019-05-01T12:57:55.145Z,24.11
2019-05-01T12:58:55.982Z,23.87
2019-05-01T12:59:35.607Z,23.59
2019-05-01T13:00:55.645Z,23.45
2019-05-01T13:01:59.154Z,23.34
2019-05-01T13:02:35.579Z,23.23
2019-05-01T13:03:34.645Z,22.93
2019-05-01T13:04:56.144Z,22.91
2019-05-01T13:05:56.146Z,23.03
2019-05-01T13:06:35.146Z,23.04
2019-05-01T13:07:39.146Z,22.78
2019-05-01T13:08:37.121Z,22.57
2019-05-01T13:09:35.656Z,22.46
2019-05-01T13:10:35.646Z,22.52
2019-05-01T13:11:35.646Z,23.00
2019-05-01T13:13:00.649Z,24.19
2019-05-01T13:13:36.146Z,24.30
2019-05-01T13:14:36.146Z,24.23
2019-05-01T13:15:36.146Z,23.92
2019-05-01T13:16:38.644Z,23.71
2019-05-01T13:17:36.646Z,23.53
2019-05-01T13:18:40.147Z,23.31
2019-05-01T13:19:36.649Z,23.12
2019-05-01T13:20:37.152Z,22.91
2019-05-01T13:21:37.146Z,22.81
2019-05-01T13:22:37.146Z,22.52
2019-05-01T13:23:41.648Z,22.38
2019-05-01T13:24:37.650Z,22.30
2019-05-01T13:25:37.653Z,22.17
2019-05-01T13:26:37.650Z,22.06
2019-05-01T13:27:37.647Z,22.14
2019-05-01T13:28:38.147Z,22.31
2019-05-01T13:29:41.150Z,22.45
2019-05-01T13:30:38.170Z,22.48
2019-05-01T13:31:38.150Z,22.48
2019-05-01T13:32:38.673Z,22.66
2019-05-01T13:33:38.650Z,22.82
2019-05-01T13:34:42.651Z,22.85
2019-05-01T13:35:38.648Z,22.85
2019-05-01T13:36:41.148Z,22.89
2019-05-01T13:39:31.533Z,23.00
2019-05-01T13:40:14.035Z,22.91
2019-05-01T13:41:12.472Z,22.85
2019-05-01T13:42:11.037Z,22.94
2019-05-01T13:43:32.051Z,22.93
2019-05-01T13:44:11.037Z,22.94
2019-05-01T13:45:15.049Z,22.88
2019-05-01T13:46:11.538Z,22.66
2019-05-01T13:47:11.537Z,22.52
2019-05-01T13:48:32.538Z,22.27
2019-05-01T13:49:11.539Z,22.05
2019-05-01T13:51:46.145Z,21.81
2019-05-01T13:53:07.153Z,21.81
2019-05-01T13:53:46.153Z,21.75
2019-05-01T13:54:46.652Z,21.64
2019-05-01T13:55:50.157Z,21.64
2019-05-01T13:56:46.652Z,21.66
2019-05-01T13:59:40.232Z,21.33
2019-05-01T14:00:18.289Z,21.21
2019-05-01T14:01:20.789Z,21.24
2019-05-01T14:02:39.791Z,21.18
2019-05-01T14:03:19.723Z,21.08
2019-05-01T14:04:39.791Z,20.93
2019-05-01T14:05:18.802Z,20.96
2019-05-01T14:06:22.789Z,20.83
2019-05-01T14:07:19.289Z,21.00
2019-05-01T14:08:40.302Z,20.85
2019-05-01T14:09:19.291Z,20.78
2019-05-01T14:13:26.416Z,20.78